Time;durP1;ratioP1;P1;durP2;ratioP2;P2;SDS_P1;SDS_P2;PMS_P1;PMS_P2;Temp;Humidity;BMP_temperature;BMP_pressure;BME280_temperature;BME280_humidity;BME280_pressure;Samples;Min_cycle;Max_cycle;Signal;HPM_P1;HPM_P2
2023/08/09 00:01:02;;;;;;;182.40;52.70;;;;;;;;;;5054250;28;20195;-50
2023/08/09 00:03:28;;;;;;;184.88;54.95;;;;;;;;;;5054427;28;20578;-50
2023/08/09 00:05:54;;;;;;;185.68;54.45;;;;;;;;;;5054426;28;20553;-51
2023/08/09 00:08:20;;;;;;;184.60;54.90;;;;;;;;;;5054473;28;20222;-50
2023/08/09 00:10:46;;;;;;;184.07;54.30;;;;;;;;;;5051187;28;20191;-50
2023/08/09 00:13:12;;;;;;;185.30;54.10;;;;;;;;;;5050909;28;20776;-51
2023/08/09 00:15:38;;;;;;;182.55;52.70;;;;;;;;;;5046218;28;20178;-53
2023/08/09 00:18:04;;;;;;;183.38;53.10;;;;;;;;;;5052623;28;20213;-53
2023/08/09 00:20:31;;;;;;;182.47;53.07;;;;;;;;;;5053784;28;20196;-49
2023/08/09 00:22:58;;;;;;;184.90;54.05;;;;;;;;;;5054205;28;20462;-49
2023/08/09 00:25:24;;;;;;;185.02;54.40;;;;;;;;;;5054135;28;20176;-50
2023/08/09 00:27:50;;;;;;;182.80;53.30;;;;;;;;;;5054627;28;20175;-50
2023/08/09 00:30:16;;;;;;;184.00;53.40;;;;;;;;;;5053684;28;20904;-50
2023/08/09 00:32:42;;;;;;;183.33;53.40;;;;;;;;;;5054383;28;20454;-52
2023/08/09 00:35:09;;;;;;;183.52;53.22;;;;;;;;;;5050444;28;20446;-52
2023/08/09 00:37:35;;;;;;;185.02;54.25;;;;;;;;;;5053963;28;20190;-49
2023/08/09 00:40:05;;;;;;;178.18;53.17;;;;;;;;;;5053863;28;20179;-49
2023/08/09 00:42:31;;;;;;;182.43;55.45;;;;;;;;;;5054193;28;20195;-50
2023/08/09 00:44:57;;;;;;;180.00;53.10;;;;;;;;;;5053454;28;20598;-52
2023/08/09 00:47:23;;;;;;;180.77;53.50;;;;;;;;;;5053359;28;20414;-52
2023/08/09 00:49:49;;;;;;;184.83;56.87;;;;;;;;;;5051766;28;20417;-50
2023/08/09 00:52:16;;;;;;;178.52;52.13;;;;;;;;;;5050535;28;21039;-49
2023/08/09 00:54:43;;;;;;;178.98;53.28;;;;;;;;;;5053731;28;20175;-52
2023/08/09 00:57:09;;;;;;;178.00;52.88;;;;;;;;;;5053666;28;20179;-49
2023/08/09 00:59:35;;;;;;;178.10;52.67;;;;;;;;;;5051926;28;20195;-49
2023/08/09 01:02:01;;;;;;;184.38;57.72;;;;;;;;;;5052617;28;20220;-56
2023/08/09 01:04:27;;;;;;;178.27;52.87;;;;;;;;;;5045357;28;20167;-53
2023/08/09 01:07:01;;;;;;;179.25;54.70;;;;;;;;;;5049300;28;20413;-54
2023/08/09 01:09:30;;;;;;;179.32;54.30;;;;;;;;;;5049820;28;20170;-54
2023/08/09 01:12:02;;;;;;;178.45;53.50;;;;;;;;;;5047818;28;20222;-53
2023/08/09 01:14:29;;;;;;;181.80;55.13;;;;;;;;;;5051738;28;20531;-54
2023/08/09 01:16:56;;;;;;;178.68;52.72;;;;;;;;;;5053412;28;20179;-53
2023/08/09 01:19:38;;;;;;;178.65;53.30;;;;;;;;;;5048427;28;20188;-53
2023/08/09 01:22:13;;;;;;;176.80;52.50;;;;;;;;;;5053032;28;20215;-53
2023/08/09 01:24:39;;;;;;;176.45;51.83;;;;;;;;;;5045068;28;20183;-54
2023/08/09 01:27:05;;;;;;;179.90;54.25;;;;;;;;;;5051983;28;20224;-55
2023/08/09 01:29:31;;;;;;;176.68;51.55;;;;;;;;;;5052962;28;20522;-54
2023/08/09 01:31:58;;;;;;;177.50;52.50;;;;;;;;;;5050091;28;20188;-54
2023/08/09 01:34:24;;;;;;;177.85;52.95;;;;;;;;;;5050908;28;20183;-55
2023/08/09 01:36:50;;;;;;;178.20;52.08;;;;;;;;;;5052924;28;20211;-55
2023/08/09 01:39:19;;;;;;;179.60;53.17;;;;;;;;;;5052801;28;20179;-55
2023/08/09 01:41:47;;;;;;;180.27;53.25;;;;;;;;;;5050955;28;20195;-53
2023/08/09 01:44:13;;;;;;;179.05;54.03;;;;;;;;;;5052748;28;20178;-54
2023/08/09 01:46:40;;;;;;;179.18;54.35;;;;;;;;;;5044650;28;20175;-55
2023/08/09 01:49:12;;;;;;;179.52;54.55;;;;;;;;;;5052599;28;20267;-55
2023/08/09 01:51:38;;;;;;;178.43;52.85;;;;;;;;;;5052264;28;20207;-55
2023/08/09 01:54:05;;;;;;;178.77;53.47;;;;;;;;;;5044801;28;20184;-55
2023/08/09 01:56:31;;;;;;;178.85;53.40;;;;;;;;;;5052103;28;20183;-55
2023/08/09 01:58:57;;;;;;;177.57;51.33;;;;;;;;;;5048930;28;20163;-54
2023/08/09 02:01:23;;;;;;;180.80;53.72;;;;;;;;;;5047562;28;20199;-55
2023/08/09 02:03:49;;;;;;;179.63;53.22;;;;;;;;;;5052471;28;20559;-55
2023/08/09 02:06:16;;;;;;;178.45;52.47;;;;;;;;;;5052340;28;20542;-54
2023/08/09 02:08:42;;;;;;;176.75;52.03;;;;;;;;;;5052101;28;20178;-52
2023/08/09 02:11:08;;;;;;;176.93;51.85;;;;;;;;;;5050729;28;20335;-56
2023/08/09 02:13:34;;;;;;;180.17;53.60;;;;;;;;;;5049405;28;20455;-55
2023/08/09 02:16:03;;;;;;;181.00;54.22;;;;;;;;;;5052146;28;20410;-53
2023/08/09 02:18:29;;;;;;;175.23;54.28;;;;;;;;;;5052064;28;20639;-54
2023/08/09 02:20:55;;;;;;;175.00;52.83;;;;;;;;;;5051787;28;20202;-54
2023/08/09 02:23:21;;;;;;;175.25;54.50;;;;;;;;;;5050777;28;20199;-53
2023/08/09 02:25:47;;;;;;;174.37;51.63;;;;;;;;;;5052598;28;20169;-50
2023/08/09 02:28:13;;;;;;;176.00;52.70;;;;;;;;;;5051939;28;20451;-50
2023/08/09 02:30:39;;;;;;;178.23;53.50;;;;;;;;;;5047743;28;20455;-50
2023/08/09 02:33:05;;;;;;;177.03;53.00;;;;;;;;;;5051871;28;20186;-50
2023/08/09 02:35:32;;;;;;;176.87;53.70;;;;;;;;;;5051824;28;20410;-50
2023/08/09 02:37:58;;;;;;;174.98;52.53;;;;;;;;;;5050785;28;20420;-49
2023/08/09 02:40:25;;;;;;;176.55;52.72;;;;;;;;;;5051510;28;20571;-50
2023/08/09 02:42:51;;;;;;;178.32;52.92;;;;;;;;;;5051665;28;20217;-52
2023/08/09 02:45:17;;;;;;;179.97;53.07;;;;;;;;;;5051669;28;20245;-50
2023/08/09 02:47:43;;;;;;;179.77;52.67;;;;;;;;;;5051990;28;20463;-49
2023/08/09 02:50:09;;;;;;;183.93;54.10;;;;;;;;;;5043814;28;20905;-50
2023/08/09 02:52:35;;;;;;;183.25;54.40;;;;;;;;;;5050667;28;20410;-49
2023/08/09 02:55:02;;;;;;;182.20;53.20;;;;;;;;;;5051459;28;20182;-49
2023/08/09 02:57:28;;;;;;;181.52;53.70;;;;;;;;;;5051507;28;20540;-52
2023/08/09 02:59:54;;;;;;;184.10;56.00;;;;;;;;;;5048361;28;20227;-51
2023/08/09 03:02:20;;;;;;;181.17;53.93;;;;;;;;;;5048743;28;20458;-54
2023/08/09 03:04:46;;;;;;;180.77;53.27;;;;;;;;;;5048327;28;20421;-50
2023/08/09 03:07:12;;;;;;;180.82;53.80;;;;;;;;;;5050538;28;20400;-50
2023/08/09 03:09:38;;;;;;;183.30;54.60;;;;;;;;;;5051666;28;20182;-50
2023/08/09 03:12:04;;;;;;;181.32;53.55;;;;;;;;;;5055453;28;20465;-50
2023/08/09 03:14:30;;;;;;;183.60;54.83;;;;;;;;;;5055498;28;20185;-49
2023/08/09 03:16:56;;;;;;;181.95;53.78;;;;;;;;;;5050598;28;20254;-48
2023/08/09 03:19:22;;;;;;;183.87;54.63;;;;;;;;;;5052509;28;20587;-50
2023/08/09 03:21:48;;;;;;;185.18;54.58;;;;;;;;;;5055052;28;20453;-52
2023/08/09 03:24:14;;;;;;;182.80;53.37;;;;;;;;;;5055286;28;20706;-49
2023/08/09 03:26:40;;;;;;;180.43;52.53;;;;;;;;;;5055172;28;20982;-47
2023/08/09 03:29:06;;;;;;;179.37;51.83;;;;;;;;;;5042449;28;20183;-49
2023/08/09 03:31:32;;;;;;;182.13;53.10;;;;;;;;;;5052734;28;20522;-47
2023/08/09 03:34:00;;;;;;;184.43;54.20;;;;;;;;;;5055077;28;20408;-49
2023/08/09 03:36:26;;;;;;;181.35;51.67;;;;;;;;;;5055079;28;20414;-48
2023/08/09 03:38:52;;;;;;;185.50;55.03;;;;;;;;;;5055108;28;20259;-49
2023/08/09 03:41:18;;;;;;;185.67;53.37;;;;;;;;;;5054860;28;20425;-49
2023/08/09 03:43:44;;;;;;;183.50;53.27;;;;;;;;;;5054905;28;20517;-52
2023/08/09 03:46:10;;;;;;;183.93;54.00;;;;;;;;;;5054928;28;20503;-49
2023/08/09 03:48:36;;;;;;;182.97;53.07;;;;;;;;;;5055248;28;20877;-49
2023/08/09 03:51:02;;;;;;;183.13;53.67;;;;;;;;;;5054462;28;20803;-49
2023/08/09 03:53:28;;;;;;;183.37;53.30;;;;;;;;;;5054812;28;20854;-49
2023/08/09 03:55:54;;;;;;;182.33;52.80;;;;;;;;;;5054986;28;20428;-51
2023/08/09 03:58:20;;;;;;;182.07;53.90;;;;;;;;;;5054566;28;20496;-50
2023/08/09 04:00:46;;;;;;;185.47;53.97;;;;;;;;;;5053015;28;20482;-52
2023/08/09 04:03:12;;;;;;;182.40;52.47;;;;;;;;;;5054457;28;20471;-49
2023/08/09 04:05:38;;;;;;;183.40;53.50;;;;;;;;;;5054625;28;20405;-51
2023/08/09 04:08:06;;;;;;;181.87;52.27;;;;;;;;;;5054642;28;20639;-51
2023/08/09 04:10:32;;;;;;;180.93;52.28;;;;;;;;;;5054195;28;20977;-50
2023/08/09 04:12:58;;;;;;;184.27;53.10;;;;;;;;;;5046680;28;20183;-50
2023/08/09 04:15:24;;;;;;;177.52;53.78;;;;;;;;;;5052929;28;20920;-50
2023/08/09 04:17:50;;;;;;;180.37;54.57;;;;;;;;;;5053316;28;20269;-49
2023/08/09 04:20:16;;;;;;;177.82;53.85;;;;;;;;;;5052855;28;20409;-49
2023/08/09 04:22:42;;;;;;;174.93;53.10;;;;;;;;;;5054323;28;20541;-50
2023/08/09 04:25:10;;;;;;;172.83;51.60;;;;;;;;;;5054460;28;20884;-49
2023/08/09 04:27:38;;;;;;;177.15;53.70;;;;;;;;;;5054163;28;20401;-54
2023/08/09 04:30:04;;;;;;;178.32;53.35;;;;;;;;;;5052586;28;20602;-50
2023/08/09 04:32:30;;;;;;;179.18;55.17;;;;;;;;;;5051507;28;20250;-52
2023/08/09 04:34:58;;;;;;;179.02;54.35;;;;;;;;;;5054049;28;20171;-50
2023/08/09 04:37:24;;;;;;;180.73;55.73;;;;;;;;;;5054055;28;20185;-50
2023/08/09 04:39:50;;;;;;;183.38;58.90;;;;;;;;;;5053807;28;20412;-50
2023/08/09 04:42:16;;;;;;;179.27;54.17;;;;;;;;;;5052596;28;20202;-50
2023/08/09 04:44:43;;;;;;;177.15;54.30;;;;;;;;;;5053843;28;20394;-50
2023/08/09 04:47:09;;;;;;;176.10;53.33;;;;;;;;;;5053810;28;20168;-50
2023/08/09 04:49:36;;;;;;;178.77;54.77;;;;;;;;;;5053562;28;20665;-51
2023/08/09 04:52:03;;;;;;;179.45;55.90;;;;;;;;;;5053624;28;20485;-50
2023/08/09 04:54:29;;;;;;;176.43;54.28;;;;;;;;;;5053688;28;20193;-51
2023/08/09 04:56:55;;;;;;;177.40;53.10;;;;;;;;;;5052680;28;20646;-50
2023/08/09 04:59:21;;;;;;;179.60;55.33;;;;;;;;;;5053497;28;20917;-51
2023/08/09 05:01:47;;;;;;;179.10;55.13;;;;;;;;;;5053593;28;20920;-52
2023/08/09 05:04:13;;;;;;;176.88;52.92;;;;;;;;;;5051471;28;20962;-53
2023/08/09 05:06:40;;;;;;;178.80;54.20;;;;;;;;;;5053506;28;20179;-49
2023/08/09 05:09:06;;;;;;;177.50;53.30;;;;;;;;;;5053430;28;20492;-53
2023/08/09 05:11:32;;;;;;;178.38;54.33;;;;;;;;;;5052085;28;20207;-51
2023/08/09 05:13:58;;;;;;;179.30;54.40;;;;;;;;;;5053262;28;20170;-55
2023/08/09 05:16:25;;;;;;;179.10;54.17;;;;;;;;;;5053190;28;20781;-51
2023/08/09 05:18:51;;;;;;;179.98;54.38;;;;;;;;;;5053249;28;20412;-50
2023/08/09 05:21:18;;;;;;;176.93;53.22;;;;;;;;;;5053042;28;20219;-50
2023/08/09 05:23:44;;;;;;;180.73;55.75;;;;;;;;;;5049016;28;20752;-49
2023/08/09 05:26:10;;;;;;;178.13;54.13;;;;;;;;;;5052120;28;20253;-50
2023/08/09 05:28:36;;;;;;;175.33;51.87;;;;;;;;;;5050273;28;20917;-52
2023/08/09 05:31:01;;;;;;;175.70;52.40;;;;;;;;;;5052687;28;20905;-52
2023/08/09 05:33:27;;;;;;;178.77;55.73;;;;;;;;;;5046794;28;20422;-53
2023/08/09 05:35:53;;;;;;;176.37;52.77;;;;;;;;;;5053193;28;20728;-50
2023/08/09 05:38:19;;;;;;;178.93;54.40;;;;;;;;;;5050878;28;20440;-55
2023/08/09 05:40:46;;;;;;;176.68;53.22;;;;;;;;;;5048447;28;20641;-50
2023/08/09 05:43:12;;;;;;;180.00;55.03;;;;;;;;;;5053128;28;20706;-50
2023/08/09 05:45:38;;;;;;;180.60;55.03;;;;;;;;;;5048205;28;20411;-50
2023/08/09 05:48:04;;;;;;;180.33;55.10;;;;;;;;;;5046721;28;20232;-50
2023/08/09 05:50:30;;;;;;;178.70;54.63;;;;;;;;;;5058754;28;20441;-51
2023/08/09 05:52:56;;;;;;;178.17;53.27;;;;;;;;;;5051740;28;20181;-50
2023/08/09 05:55:23;;;;;;;176.90;53.67;;;;;;;;;;5052425;28;20777;-50
2023/08/09 05:57:49;;;;;;;177.88;54.20;;;;;;;;;;5051595;28;20401;-50
2023/08/09 06:00:15;;;;;;;178.37;53.70;;;;;;;;;;5048803;28;20593;-50
2023/08/09 06:02:43;;;;;;;178.38;54.22;;;;;;;;;;5052346;28;20808;-51
2023/08/09 06:05:14;;;;;;;177.15;52.72;;;;;;;;;;5052587;28;20253;-52
2023/08/09 06:07:40;;;;;;;179.85;54.95;;;;;;;;;;5045314;28;20189;-50
2023/08/09 06:10:06;;;;;;;180.35;55.10;;;;;;;;;;5051939;28;20167;-51
2023/08/09 06:12:32;;;;;;;181.20;55.22;;;;;;;;;;5051969;28;20262;-50
2023/08/09 06:14:58;;;;;;;181.23;55.27;;;;;;;;;;5052179;28;20278;-51
2023/08/09 06:17:24;;;;;;;180.47;54.80;;;;;;;;;;5052087;28;20412;-50
2023/08/09 06:19:50;;;;;;;182.80;57.27;;;;;;;;;;5051909;28;20917;-51
2023/08/09 06:22:16;;;;;;;180.20;54.97;;;;;;;;;;5051083;28;21064;-54
2023/08/09 06:24:42;;;;;;;181.87;56.27;;;;;;;;;;5052030;28;20623;-51
2023/08/09 06:27:07;;;;;;;180.47;55.67;;;;;;;;;;5051166;28;20406;-50
2023/08/09 06:29:33;;;;;;;179.70;54.67;;;;;;;;;;5045642;28;20838;-50
2023/08/09 06:31:59;;;;;;;177.37;52.67;;;;;;;;;;5045530;28;20507;-56
2023/08/09 06:34:25;;;;;;;183.93;56.67;;;;;;;;;;5049421;28;20407;-53
2023/08/09 06:36:51;;;;;;;182.13;55.30;;;;;;;;;;5051420;28;20547;-52
2023/08/09 06:39:17;;;;;;;183.60;58.03;;;;;;;;;;5051111;28;20398;-52
2023/08/09 06:41:43;;;;;;;180.03;55.03;;;;;;;;;;5050783;28;21019;-50
2023/08/09 06:44:09;;;;;;;181.60;54.95;;;;;;;;;;5050535;28;20471;-50
2023/08/09 06:46:37;;;;;;;180.80;54.77;;;;;;;;;;5051159;28;20258;-50
2023/08/09 06:49:03;;;;;;;182.38;56.83;;;;;;;;;;5050307;28;20970;-51
2023/08/09 06:51:29;;;;;;;181.00;55.58;;;;;;;;;;5048868;28;20707;-51
2023/08/09 06:53:55;;;;;;;180.17;53.33;;;;;;;;;;5051575;28;20175;-50
2023/08/09 06:56:21;;;;;;;183.10;57.00;;;;;;;;;;5051392;28;20402;-52
2023/08/09 06:58:47;;;;;;;179.83;55.33;;;;;;;;;;5051586;28;20411;-51
2023/08/09 07:01:13;;;;;;;178.70;53.50;;;;;;;;;;5051218;28;20429;-53
2023/08/09 07:03:39;;;;;;;180.43;55.70;;;;;;;;;;5048838;28;20533;-51
2023/08/09 07:06:05;;;;;;;178.18;53.47;;;;;;;;;;5051474;28;20412;-50
2023/08/09 07:08:31;;;;;;;180.80;53.95;;;;;;;;;;5047339;28;20181;-50
2023/08/09 07:10:57;;;;;;;180.57;54.37;;;;;;;;;;5047500;28;20189;-51
2023/08/09 07:13:25;;;;;;;180.35;53.92;;;;;;;;;;5049205;28;20490;-50
2023/08/09 07:15:51;;;;;;;179.10;55.17;;;;;;;;;;5046836;28;20178;-52
2023/08/09 07:18:17;;;;;;;178.43;53.77;;;;;;;;;;5051279;28;20988;-52
2023/08/09 07:20:43;;;;;;;179.67;54.77;;;;;;;;;;5048779;28;20439;-53
2023/08/09 07:23:09;;;;;;;179.80;53.80;;;;;;;;;;5051214;28;20489;-53
2023/08/09 07:25:35;;;;;;;182.17;56.60;;;;;;;;;;5051110;28;20435;-51
2023/08/09 07:28:01;;;;;;;180.20;55.03;;;;;;;;;;5045705;28;20418;-52
2023/08/09 07:30:26;;;;;;;181.57;56.80;;;;;;;;;;5049280;28;20425;-51
2023/08/09 07:32:52;;;;;;;180.50;55.43;;;;;;;;;;5051278;28;20806;-51
2023/08/09 07:35:19;;;;;;;182.03;54.60;;;;;;;;;;5049980;28;20428;-52
2023/08/09 07:37:46;;;;;;;185.00;57.47;;;;;;;;;;5047332;28;20419;-53
2023/08/09 07:40:13;;;;;;;182.37;54.60;;;;;;;;;;5050844;28;20415;-51
2023/08/09 07:42:40;;;;;;;180.97;54.10;;;;;;;;;;5051218;28;20464;-54
2023/08/09 07:45:06;;;;;;;183.07;56.17;;;;;;;;;;5050485;28;20421;-51
2023/08/09 07:47:33;;;;;;;185.77;57.40;;;;;;;;;;5051004;28;20417;-51
2023/08/09 07:50:00;;;;;;;185.57;56.90;;;;;;;;;;5048828;28;20602;-52
2023/08/09 07:52:26;;;;;;;186.77;55.20;;;;;;;;;;5049428;28;20480;-54
2023/08/09 07:54:52;;;;;;;186.50;54.77;;;;;;;;;;5052517;28;20417;-53
2023/08/09 07:57:18;;;;;;;188.37;55.47;;;;;;;;;;5054701;28;20423;-53
2023/08/09 07:59:44;;;;;;;189.47;57.37;;;;;;;;;;5049526;28;20430;-52
2023/08/09 08:02:10;;;;;;;190.17;56.30;;;;;;;;;;5054731;28;20466;-53
2023/08/09 08:04:37;;;;;;;191.97;58.60;;;;;;;;;;5052457;28;20469;-55
2023/08/09 08:07:03;;;;;;;188.80;57.80;;;;;;;;;;5050942;28;20440;-53
2023/08/09 08:09:32;;;;;;;188.03;57.70;;;;;;;;;;5054826;28;20530;-52
2023/08/09 08:11:58;;;;;;;187.57;56.37;;;;;;;;;;5053340;28;20464;-51
2023/08/09 08:14:24;;;;;;;187.50;55.80;;;;;;;;;;5054327;28;20436;-51
2023/08/09 08:16:50;;;;;;;188.47;58.83;;;;;;;;;;5054896;28;20804;-52
2023/08/09 08:19:16;;;;;;;189.70;57.20;;;;;;;;;;5054546;28;20814;-52
2023/08/09 08:21:42;;;;;;;187.97;56.57;;;;;;;;;;5053927;28;20506;-53
2023/08/09 08:24:08;;;;;;;188.17;57.57;;;;;;;;;;5054215;28;20402;-54
2023/08/09 08:26:34;;;;;;;190.47;60.80;;;;;;;;;;5054774;28;20460;-57
2023/08/09 08:29:01;;;;;;;189.87;58.07;;;;;;;;;;5054243;28;20412;-57
2023/08/09 08:31:27;;;;;;;191.73;60.03;;;;;;;;;;5052630;28;20528;-56
2023/08/09 08:33:54;;;;;;;194.80;63.90;;;;;;;;;;5052830;28;20452;-56
2023/08/09 08:36:22;;;;;;;193.27;62.13;;;;;;;;;;5054051;28;20789;-57
2023/08/09 08:38:49;;;;;;;194.33;62.80;;;;;;;;;;5054177;28;20944;-57
2023/08/09 08:41:15;;;;;;;196.50;64.03;;;;;;;;;;5053805;28;20437;-56
2023/08/09 08:43:41;;;;;;;197.13;64.03;;;;;;;;;;5054041;28;20460;-57
2023/08/09 08:46:08;;;;;;;196.53;64.47;;;;;;;;;;5054009;28;20428;-56
2023/08/09 08:48:34;;;;;;;194.47;62.10;;;;;;;;;;5053950;28;20401;-56
2023/08/09 08:51:04;;;;;;;197.33;62.97;;;;;;;;;;5053385;28;20440;-57
2023/08/09 08:53:30;;;;;;;199.60;65.90;;;;;;;;;;5053768;28;20471;-57
2023/08/09 08:55:57;;;;;;;197.87;63.27;;;;;;;;;;5053611;28;20421;-56
2023/08/09 08:58:23;;;;;;;200.40;67.87;;;;;;;;;;5050271;28;20447;-56
2023/08/09 09:00:49;;;;;;;196.70;63.30;;;;;;;;;;5053408;28;20433;-57
2023/08/09 09:03:15;;;;;;;197.60;63.70;;;;;;;;;;5053486;28;20498;-56
2023/08/09 09:05:41;;;;;;;199.47;66.77;;;;;;;;;;5038289;28;20428;-57
2023/08/09 09:08:08;;;;;;;197.60;63.00;;;;;;;;;;5052966;28;20397;-57
2023/08/09 09:10:34;;;;;;;199.30;66.73;;;;;;;;;;5041537;28;20471;-57
2023/08/09 09:13:00;;;;;;;198.33;64.20;;;;;;;;;;5050268;28;20806;-56
2023/08/09 09:15:26;;;;;;;198.07;65.07;;;;;;;;;;5053361;28;20504;-56
2023/08/09 09:17:53;;;;;;;197.27;63.37;;;;;;;;;;5053501;28;20813;-56
2023/08/09 09:20:23;;;;;;;198.17;65.57;;;;;;;;;;5052979;28;20718;-56
2023/08/09 09:22:49;;;;;;;200.33;67.73;;;;;;;;;;5053374;28;20457;-56
2023/08/09 09:25:17;;;;;;;195.87;61.10;;;;;;;;;;5053147;28;20398;-56
2023/08/09 09:27:43;;;;;;;201.53;68.47;;;;;;;;;;5053296;28;20508;-56
2023/08/09 09:30:19;;;;;;;198.10;63.70;;;;;;;;;;5052797;28;20413;-56
2023/08/09 09:32:51;;;;;;;196.87;61.83;;;;;;;;;;5053158;28;20423;-56
2023/08/09 09:35:25;;;;;;;198.77;63.90;;;;;;;;;;5052899;28;20509;-55
2023/08/09 09:37:52;;;;;;;199.17;64.87;;;;;;;;;;5052916;28;20499;-56
2023/08/09 09:40:31;;;;;;;201.33;64.03;;;;;;;;;;5039012;28;20914;-56
2023/08/09 09:42:58;;;;;;;201.97;67.23;;;;;;;;;;5042605;28;20467;-55
2023/08/09 09:45:26;;;;;;;200.37;64.77;;;;;;;;;;5053906;28;20414;-56
2023/08/09 09:47:53;;;;;;;203.10;68.70;;;;;;;;;;5052767;28;20416;-57
2023/08/09 09:50:22;;;;;;;203.77;67.57;;;;;;;;;;5052314;28;20925;-56
2023/08/09 09:52:48;;;;;;;198.63;61.90;;;;;;;;;;5052706;28;20496;-57
2023/08/09 09:55:16;;;;;;;195.40;62.53;;;;;;;;;;5052700;28;20185;-54
2023/08/09 09:57:42;;;;;;;200.63;65.80;;;;;;;;;;5044390;28;20444;-56
2023/08/09 10:00:09;;;;;;;202.87;68.57;;;;;;;;;;5044997;28;20522;-56
2023/08/09 10:02:48;;;;;;;196.77;61.97;;;;;;;;;;5052310;28;21010;-56
2023/08/09 10:05:21;;;;;;;195.27;61.83;;;;;;;;;;5052494;28;20513;-56
2023/08/09 10:07:48;;;;;;;198.87;64.53;;;;;;;;;;5050205;28;20506;-53
2023/08/09 10:10:15;;;;;;;196.13;62.53;;;;;;;;;;5048526;28;20966;-56
2023/08/09 10:12:43;;;;;;;198.80;65.60;;;;;;;;;;5052217;28;20922;-56
2023/08/09 10:15:11;;;;;;;199.37;64.20;;;;;;;;;;5052234;28;20416;-56
2023/08/09 10:17:37;;;;;;;198.30;64.93;;;;;;;;;;5051940;28;20504;-55
2023/08/09 10:20:05;;;;;;;197.20;63.47;;;;;;;;;;5051214;28;20504;-56
2023/08/09 10:22:31;;;;;;;208.68;72.28;;;;;;;;;;5050720;28;20542;-56
2023/08/09 10:24:58;;;;;;;198.27;66.13;;;;;;;;;;5061418;28;20184;-56
2023/08/09 10:27:42;;;;;;;198.57;67.40;;;;;;;;;;5059066;28;20409;-56
2023/08/09 10:30:13;;;;;;;194.97;62.53;;;;;;;;;;5031785;28;20451;-57
2023/08/09 10:32:53;;;;;;;197.30;66.63;;;;;;;;;;5049707;28;20597;-56
2023/08/09 10:35:20;;;;;;;194.60;62.37;;;;;;;;;;5052078;28;20413;-56
2023/08/09 10:37:47;;;;;;;195.00;64.57;;;;;;;;;;5051910;28;20971;-56
2023/08/09 10:40:15;;;;;;;194.07;62.80;;;;;;;;;;5051660;28;20427;-55
2023/08/09 10:42:45;;;;;;;193.70;61.97;;;;;;;;;;5051764;28;20457;-56
2023/08/09 10:45:11;;;;;;;192.93;62.03;;;;;;;;;;5051632;28;20417;-56
2023/08/09 10:47:40;;;;;;;195.47;64.77;;;;;;;;;;5051526;28;20411;-54
2023/08/09 10:50:07;;;;;;;193.90;61.23;;;;;;;;;;5051271;28;20429;-56
2023/08/09 10:52:34;;;;;;;194.53;63.27;;;;;;;;;;5051657;28;20424;-55
2023/08/09 10:55:18;;;;;;;192.60;62.77;;;;;;;;;;5051690;28;20421;-55
2023/08/09 10:57:47;;;;;;;194.47;63.67;;;;;;;;;;5051656;28;20422;-56
2023/08/09 11:00:13;;;;;;;193.17;62.33;;;;;;;;;;5051488;28;20901;-55
2023/08/09 11:03:06;;;;;;;194.53;62.67;;;;;;;;;;5051589;28;20460;-56
2023/08/09 11:05:32;;;;;;;191.60;59.53;;;;;;;;;;5050654;28;20493;-56
2023/08/09 11:07:59;;;;;;;195.30;62.93;;;;;;;;;;5051439;28;20441;-56
2023/08/09 11:10:35;;;;;;;193.07;62.70;;;;;;;;;;5050743;28;20440;-52
2023/08/09 11:13:08;;;;;;;193.73;63.00;;;;;;;;;;5051502;28;20408;-52
2023/08/09 11:15:34;;;;;;;193.77;62.47;;;;;;;;;;5051326;28;20790;-51
2023/08/09 11:18:01;;;;;;;197.00;66.27;;;;;;;;;;5043438;28;20492;-51
2023/08/09 11:20:27;;;;;;;193.77;61.90;;;;;;;;;;5036110;28;20843;-51
2023/08/09 11:22:54;;;;;;;194.47;63.73;;;;;;;;;;5051575;28;20448;-52
2023/08/09 11:25:20;;;;;;;193.67;62.50;;;;;;;;;;5051372;28;20408;-53
2023/08/09 11:27:46;;;;;;;197.87;66.70;;;;;;;;;;5051645;28;20496;-51
2023/08/09 11:30:12;;;;;;;194.77;61.93;;;;;;;;;;5052734;28;20413;-51
2023/08/09 11:32:39;;;;;;;194.67;63.13;;;;;;;;;;5055366;28;20419;-51
2023/08/09 11:35:05;;;;;;;194.47;63.57;;;;;;;;;;5048485;28;20426;-51
2023/08/09 11:37:31;;;;;;;194.17;61.93;;;;;;;;;;5042423;28;20417;-51
2023/08/09 11:39:57;;;;;;;196.00;63.87;;;;;;;;;;5054919;28;20417;-51
2023/08/09 11:42:23;;;;;;;197.10;66.30;;;;;;;;;;5047371;28;20484;-52
2023/08/09 11:44:49;;;;;;;192.57;61.40;;;;;;;;;;5055099;28;20944;-52
2023/08/09 11:47:15;;;;;;;193.47;63.70;;;;;;;;;;5055084;28;20413;-51
2023/08/09 11:49:41;;;;;;;194.13;62.77;;;;;;;;;;5054619;28;20914;-53
2023/08/09 11:52:08;;;;;;;190.67;59.53;;;;;;;;;;5055030;28;20429;-53
2023/08/09 11:54:34;;;;;;;192.37;61.30;;;;;;;;;;5054735;28;20450;-51
2023/08/09 11:57:00;;;;;;;192.07;61.17;;;;;;;;;;5054811;28;20412;-51
2023/08/09 11:59:26;;;;;;;193.07;62.03;;;;;;;;;;5054840;28;20501;-52
2023/08/09 12:01:53;;;;;;;193.17;62.47;;;;;;;;;;5054604;28;20509;-55
2023/08/09 12:04:24;;;;;;;194.30;63.07;;;;;;;;;;5054910;28;20400;-51
2023/08/09 12:06:56;;;;;;;196.60;64.53;;;;;;;;;;5052974;28;20413;-51
2023/08/09 12:09:34;;;;;;;196.07;64.67;;;;;;;;;;5053821;28;20420;-51
2023/08/09 12:12:19;;;;;;;192.80;62.30;;;;;;;;;;5054691;28;20888;-51
2023/08/09 12:14:46;;;;;;;193.97;62.47;;;;;;;;;;5054387;28;20986;-53
2023/08/09 12:17:18;;;;;;;194.10;63.97;;;;;;;;;;5054784;28;20452;-51
2023/08/09 12:19:44;;;;;;;191.67;60.83;;;;;;;;;;5054181;28;20535;-53
2023/08/09 12:22:10;;;;;;;192.90;62.37;;;;;;;;;;5054379;28;20460;-53
2023/08/09 12:24:36;;;;;;;191.43;61.50;;;;;;;;;;5051639;28;21047;-55
2023/08/09 12:27:03;;;;;;;191.57;60.97;;;;;;;;;;5034540;28;20397;-56
2023/08/09 12:29:29;;;;;;;194.13;65.53;;;;;;;;;;5053968;28;20409;-52
2023/08/09 12:31:55;;;;;;;194.37;63.90;;;;;;;;;;5054001;28;20429;-53
2023/08/09 12:34:21;;;;;;;194.37;64.37;;;;;;;;;;5054075;28;20448;-52
2023/08/09 12:36:47;;;;;;;192.60;61.03;;;;;;;;;;5054265;28;20503;-55
2023/08/09 12:39:16;;;;;;;193.90;63.70;;;;;;;;;;5054184;28;21187;-51
2023/08/09 12:41:42;;;;;;;194.17;64.60;;;;;;;;;;5052862;28;20951;-53
2023/08/09 12:44:08;;;;;;;193.27;64.03;;;;;;;;;;5053836;28;20464;-53
2023/08/09 12:46:35;;;;;;;191.60;62.63;;;;;;;;;;5051218;28;20414;-56
2023/08/09 12:49:01;;;;;;;192.67;63.07;;;;;;;;;;5037261;28;20458;-56
2023/08/09 12:51:27;;;;;;;192.97;62.87;;;;;;;;;;5049989;28;20441;-56
2023/08/09 12:53:52;;;;;;;196.20;66.80;;;;;;;;;;5054215;28;20409;-55
2023/08/09 12:56:18;;;;;;;193.70;63.33;;;;;;;;;;5053474;28;20933;-55
2023/08/09 12:58:44;;;;;;;196.00;64.03;;;;;;;;;;5052537;28;21056;-55
2023/08/09 13:01:11;;;;;;;194.13;63.63;;;;;;;;;;5050929;28;20441;-56
2023/08/09 13:03:37;;;;;;;199.60;67.77;;;;;;;;;;5052395;28;20449;-56
2023/08/09 13:06:04;;;;;;;197.13;68.27;;;;;;;;;;5052078;28;20397;-56
2023/08/09 13:08:30;;;;;;;193.07;62.77;;;;;;;;;;5053609;28;20500;-56
2023/08/09 13:10:56;;;;;;;193.10;62.40;;;;;;;;;;5052882;28;20437;-56
2023/08/09 13:13:22;;;;;;;193.57;63.10;;;;;;;;;;5053502;28;20425;-55
2023/08/09 13:15:49;;;;;;;193.10;61.77;;;;;;;;;;5053304;28;20796;-54
2023/08/09 13:18:14;;;;;;;190.40;61.40;;;;;;;;;;5053273;28;20473;-56
2023/08/09 13:20:40;;;;;;;191.07;61.03;;;;;;;;;;5053214;28;20437;-56
2023/08/09 13:23:09;;;;;;;192.30;62.77;;;;;;;;;;5053096;28;20460;-56
2023/08/09 13:25:35;;;;;;;192.93;62.53;;;;;;;;;;5033113;28;20399;-55
2023/08/09 13:28:04;;;;;;;193.50;62.43;;;;;;;;;;5050763;28;20412;-55
2023/08/09 13:30:30;;;;;;;192.77;62.70;;;;;;;;;;5052869;28;20430;-57
2023/08/09 13:32:56;;;;;;;191.07;62.00;;;;;;;;;;5053004;28;20436;-54
2023/08/09 13:35:22;;;;;;;192.63;64.03;;;;;;;;;;5052935;28;20444;-55
2023/08/09 13:37:48;;;;;;;191.67;63.47;;;;;;;;;;5053047;28;20420;-56
2023/08/09 13:40:17;;;;;;;192.33;63.13;;;;;;;;;;5052508;28;20769;-56
2023/08/09 13:42:43;;;;;;;188.73;60.00;;;;;;;;;;5052835;28;20466;-55
2023/08/09 13:45:10;;;;;;;193.47;64.63;;;;;;;;;;5052906;28;20401;-56
2023/08/09 13:47:37;;;;;;;192.03;63.13;;;;;;;;;;5052690;28;20919;-56
2023/08/09 13:50:03;;;;;;;194.43;65.67;;;;;;;;;;5052699;28;20425;-56
2023/08/09 13:52:29;;;;;;;192.97;64.87;;;;;;;;;;5052669;28;20415;-56
2023/08/09 13:54:56;;;;;;;195.63;65.90;;;;;;;;;;5052472;28;20561;-56
2023/08/09 13:57:23;;;;;;;195.23;66.73;;;;;;;;;;5052789;28;20456;-56
2023/08/09 13:59:49;;;;;;;194.80;65.47;;;;;;;;;;5052415;28;20401;-56
2023/08/09 14:02:15;;;;;;;191.80;62.47;;;;;;;;;;5052361;28;20456;-56